createdAt,value
2022-10-09T00:01:32.643Z,99934.38
2022-10-09T00:04:01.551Z,99953.06
2022-10-09T00:06:34.013Z,99945.66
2022-10-09T00:09:04.606Z,99940.69
2022-10-09T00:11:35.059Z,99951.31
2022-10-09T00:14:04.783Z,99938.84
2022-10-09T00:16:34.663Z,99956.22
2022-10-09T00:19:03.196Z,99950.09
2022-10-09T00:21:34.567Z,99947.94
2022-10-09T00:24:05.294Z,99940.53
2022-10-09T00:26:34.487Z,99937.50
2022-10-09T00:29:02.840Z,99947.31
2022-10-09T00:31:31.389Z,99947.97
2022-10-09T00:34:01.117Z,99957.25
2022-10-09T00:36:30.357Z,99954.25
2022-10-09T00:38:59.053Z,99948.75
2022-10-09T00:41:31.156Z,99947.75
2022-10-09T00:44:01.650Z,99955.91
2022-10-09T00:46:46.648Z,99978.53
2022-10-09T00:49:22.711Z,99985.25
2022-10-09T00:51:52.827Z,99985.59
2022-10-09T00:54:26.422Z,99974.22
2022-10-09T00:56:55.733Z,99958.09
2022-10-09T00:59:24.690Z,99970.69
2022-10-09T01:01:53.865Z,99982.16
2022-10-09T01:04:23.734Z,99973.59
2022-10-09T01:07:11.965Z,99983.97
2022-10-09T01:09:48.649Z,99991.81
2022-10-09T01:12:30.467Z,99987.69
2022-10-09T01:15:11.086Z,99998.31
2022-10-09T01:17:45.298Z,100004.19
2022-10-09T01:20:43.920Z,99997.88
2022-10-09T01:23:54.106Z,100004.69
2022-10-09T01:26:47.778Z,100018.34
2022-10-09T01:29:19.262Z,100004.75
2022-10-09T01:31:51.914Z,100000.09
2022-10-09T01:34:22.172Z,99990.41
2022-10-09T01:36:51.753Z,99993.78
2022-10-09T01:39:23.786Z,100004.69
2022-10-09T01:41:54.707Z,100011.97
2022-10-09T01:44:26.455Z,100001.25
2022-10-09T01:46:55.197Z,100010.22
2022-10-09T01:49:43.146Z,100008.91
2022-10-09T01:52:30.073Z,100018.16
2022-10-09T01:55:37.408Z,100019.97
2022-10-09T01:58:17.176Z,100024.16
2022-10-09T02:00:49.734Z,100023.91
2022-10-09T02:03:19.167Z,100023.72
2022-10-09T02:05:52.844Z,100031.81
2022-10-09T02:08:23.377Z,100036.31
2022-10-09T02:10:56.999Z,100032.81
2022-10-09T02:13:26.974Z,100033.38
2022-10-09T02:16:01.616Z,100041.47
2022-10-09T02:18:38.461Z,100051.28
2022-10-09T02:21:13.087Z,100054.94
2022-10-09T02:23:42.960Z,100055.22
2022-10-09T02:26:12.926Z,100060.03
2022-10-09T02:28:46.012Z,100068.44
2022-10-09T02:31:24.219Z,100074.03
2022-10-09T02:33:57.745Z,100083.56
2022-10-09T02:36:26.920Z,100085.88
2022-10-09T02:38:56.899Z,100078.13
2022-10-09T02:41:26.124Z,100079.59
2022-10-09T02:43:56.539Z,100085.50
2022-10-09T02:46:25.872Z,100080.28
2022-10-09T02:48:54.457Z,100076.75
2022-10-09T02:51:22.878Z,100079.56
2022-10-09T02:53:53.999Z,100092.34
2022-10-09T02:56:22.669Z,100086.88
2022-10-09T02:58:51.278Z,100084.69
2022-10-09T03:01:21.623Z,100088.84
2022-10-09T03:03:50.094Z,100090.56
2022-10-09T03:06:20.801Z,100084.75
2022-10-09T03:08:51.759Z,100085.09
2022-10-09T03:11:22.002Z,100090.13
2022-10-09T03:13:51.007Z,100090.47
2022-10-09T03:16:23.863Z,100098.03
2022-10-09T03:18:53.792Z,100096.38
2022-10-09T03:21:24.797Z,100104.16
2022-10-09T03:23:54.171Z,100097.25
2022-10-09T03:26:25.964Z,100098.72
2022-10-09T03:28:55.962Z,100097.91
2022-10-09T03:31:50.776Z,100109.63
2022-10-09T03:34:16.436Z,100103.25
2022-10-09T03:36:44.787Z,100107.44
2022-10-09T03:39:13.260Z,100113.03
2022-10-09T03:41:41.679Z,100113.06
2022-10-09T03:44:10.117Z,100105.84
2022-10-09T03:46:39.879Z,100109.47
2022-10-09T03:49:08.907Z,100110.31
2022-10-09T03:51:37.325Z,100111.16
2022-10-09T03:54:06.524Z,100112.03
2022-10-09T03:56:35.220Z,100113.72
2022-10-09T03:59:05.635Z,100119.25
2022-10-09T04:01:34.245Z,100120.94
2022-10-09T04:04:04.270Z,100123.13
2022-10-09T04:06:32.619Z,100124.81
2022-10-09T04:09:01.304Z,100123.69
2022-10-09T04:11:29.660Z,100123.44
2022-10-09T04:13:58.021Z,100116.81
2022-10-09T04:16:26.570Z,100120.13
2022-10-09T04:18:55.053Z,100119.84
2022-10-09T04:21:24.783Z,100121.25
2022-10-09T04:23:53.440Z,100122.91
2022-10-09T04:26:21.851Z,100123.47
2022-10-09T04:28:50.321Z,100125.94
2022-10-09T04:31:18.768Z,100122.94
2022-10-09T04:33:47.119Z,100119.03
2022-10-09T04:36:15.473Z,100129.56
2022-10-09T04:38:45.179Z,100116.28
2022-10-09T04:41:14.041Z,100122.38
2022-10-09T04:43:42.397Z,100130.97
2022-10-09T04:46:14.308Z,100127.91
2022-10-09T04:48:44.550Z,100120.97
2022-10-09T04:51:14.071Z,100125.13
2022-10-09T04:53:44.317Z,100129.03
2022-10-09T04:56:18.109Z,100125.41
2022-10-09T04:58:48.643Z,100130.41
2022-10-09T05:01:20.027Z,100143.69
2022-10-09T05:03:48.693Z,100135.91
2022-10-09T05:06:18.621Z,100143.66
2022-10-09T05:08:48.920Z,100152.50
2022-10-09T05:11:22.052Z,100155.56
2022-10-09T05:13:52.491Z,100151.69
2022-10-09T05:16:24.452Z,100154.72
2022-10-09T05:18:55.422Z,100154.16
2022-10-09T05:21:24.632Z,100156.13
2022-10-09T05:23:55.509Z,100158.31
2022-10-09T05:26:26.451Z,100153.06
2022-10-09T05:28:54.892Z,100151.38
2022-10-09T05:31:25.219Z,100164.13
2022-10-09T05:33:54.676Z,100163.28
2022-10-09T05:36:23.250Z,100166.88
2022-10-09T05:38:53.012Z,100169.66
2022-10-09T05:41:21.411Z,100172.41
2022-10-09T05:43:51.166Z,100174.91
2022-10-09T05:46:23.479Z,100178.50
2022-10-09T05:48:55.653Z,100184.88
2022-10-09T05:51:26.804Z,100183.50
2022-10-09T05:53:57.769Z,100184.34
2022-10-09T05:56:29.223Z,100189.59
2022-10-09T05:58:59.478Z,100194.84
2022-10-09T06:01:31.135Z,100189.84
2022-10-09T06:04:01.156Z,100192.09
2022-10-09T06:06:31.909Z,100195.41
2022-10-09T06:09:01.806Z,100198.72
2022-10-09T06:11:32.987Z,100201.50
2022-10-09T06:14:03.772Z,100201.25
2022-10-09T06:16:34.331Z,100212.31
2022-10-09T06:19:03.493Z,100209.84
2022-10-09T06:21:32.106Z,100205.69
2022-10-09T06:24:03.928Z,100217.56
2022-10-09T06:26:32.693Z,100218.44
2022-10-09T06:29:03.340Z,100209.28
2022-10-09T06:31:33.868Z,100205.41
2022-10-09T06:34:04.826Z,100205.41
2022-10-09T06:36:36.153Z,100211.78
2022-10-09T06:39:08.445Z,100214.00
2022-10-09T06:41:36.982Z,100223.13
2022-10-09T06:44:10.823Z,100211.78
2022-10-09T06:46:43.605Z,100221.75
2022-10-09T06:49:12.699Z,100225.09
2022-10-09T06:51:41.398Z,100232.31
2022-10-09T06:54:16.611Z,100235.06
2022-10-09T06:56:45.590Z,100230.06
2022-10-09T06:59:14.350Z,100242.50
2022-10-09T07:01:42.775Z,100238.34
2022-10-09T07:04:13.407Z,100248.88
2022-10-09T07:06:45.161Z,100244.13
2022-10-09T07:09:16.719Z,100252.69
2022-10-09T07:11:49.322Z,100253.22
2022-10-09T07:14:18.054Z,100266.00
2022-10-09T07:16:49.776Z,100258.75
2022-10-09T07:19:19.143Z,100261.22
2022-10-09T07:21:50.799Z,100259.53
2022-10-09T07:24:21.340Z,100260.06
2022-10-09T07:26:50.336Z,100257.00
2022-10-09T07:29:20.431Z,100268.63
2022-10-09T07:31:49.909Z,100258.91
2022-10-09T07:34:18.361Z,100259.41
2022-10-09T07:36:46.748Z,100261.34
2022-10-09T07:39:15.177Z,100263.56
2022-10-09T07:41:44.931Z,100268.50
2022-10-09T07:44:13.322Z,100274.03
2022-10-09T07:46:41.746Z,100267.34
2022-10-09T07:49:10.197Z,100262.88
2022-10-09T07:51:38.604Z,100273.66
2022-10-09T07:54:07.117Z,100273.88
2022-10-09T07:56:38.101Z,100264.94
2022-10-09T07:59:12.529Z,100262.13
2022-10-09T08:01:41.957Z,100254.53
2022-10-09T08:04:11.537Z,100257.28
2022-10-09T08:06:40.111Z,100255.53
2022-10-09T08:09:09.820Z,100266.31
2022-10-09T08:11:40.807Z,100259.00
2022-10-09T08:14:18.188Z,100260.03
2022-10-09T08:16:48.215Z,100257.69
2022-10-09T08:19:16.817Z,100262.00
2022-10-09T08:21:45.249Z,100261.59
2022-10-09T08:24:13.667Z,100256.78
2022-10-09T08:26:42.934Z,100255.31
2022-10-09T08:29:16.115Z,100268.84
2022-10-09T08:31:44.507Z,100273.25
2022-10-09T08:34:12.958Z,100272.91
2022-10-09T08:36:41.535Z,100263.34
2022-10-09T08:39:09.942Z,100274.63
2022-10-09T08:41:48.560Z,100274.34
2022-10-09T08:44:23.358Z,100275.72
2022-10-09T08:47:04.869Z,100286.03
2022-10-09T08:49:47.056Z,100278.72
2022-10-09T08:52:36.684Z,100278.66
2022-10-09T08:55:17.980Z,100262.94
2022-10-09T08:57:50.757Z,100265.13
2022-10-09T09:00:24.223Z,100266.69
2022-10-09T09:03:31.406Z,100271.16
2022-10-09T09:06:08.932Z,100271.97
2022-10-09T09:08:46.658Z,100271.97
2022-10-09T09:11:25.059Z,100275.91
2022-10-09T09:14:05.909Z,100273.63
2022-10-09T09:16:44.779Z,100276.59
2022-10-09T09:19:38.509Z,100287.66
2022-10-09T09:22:11.507Z,100273.34
2022-10-09T09:24:46.436Z,100265.50
2022-10-09T09:27:20.163Z,100264.31
2022-10-09T09:29:55.699Z,100264.53
2022-10-09T09:32:30.003Z,100267.25
2022-10-09T09:35:09.394Z,100261.00
2022-10-09T09:37:38.098Z,100257.72
2022-10-09T09:43:06.734Z,100256.88
2022-10-09T09:45:35.189Z,100250.03
2022-10-09T09:48:13.269Z,100258.03
2022-10-09T09:50:50.603Z,100258.28
2022-10-09T09:53:32.947Z,100254.34
2022-10-09T09:56:01.945Z,100238.94
2022-10-09T09:58:37.650Z,100254.56
2022-10-09T10:01:08.206Z,100253.13
2022-10-09T10:03:48.601Z,100262.53
2022-10-09T10:06:24.609Z,100254.06
2022-10-09T10:09:02.189Z,100251.38
2022-10-09T10:11:32.301Z,100241.88
2022-10-09T10:14:08.112Z,100239.69
2022-10-09T10:16:39.683Z,100240.00
2022-10-09T10:19:23.623Z,100244.59
2022-10-09T10:21:58.358Z,100235.47
2022-10-09T10:24:32.792Z,100248.06
2022-10-09T10:27:08.524Z,100240.16
2022-10-09T10:29:40.315Z,100234.00
2022-10-09T10:32:16.997Z,100221.03
2022-10-09T10:34:52.821Z,100223.38
2022-10-09T10:37:31.905Z,100227.25
2022-10-09T10:40:07.477Z,100213.41
2022-10-09T10:42:45.252Z,100207.59
2022-10-09T10:45:19.351Z,100207.13
2022-10-09T10:47:53.410Z,100208.66
2022-10-09T10:50:29.259Z,100207.00
2022-10-09T10:53:07.817Z,100192.81
2022-10-09T10:55:50.120Z,100204.09
2022-10-09T10:58:28.256Z,100204.66
2022-10-09T11:01:23.960Z,100201.66
2022-10-09T11:04:15.958Z,100191.22
2022-10-09T11:06:57.587Z,100184.22
2022-10-09T11:09:34.444Z,100177.53
2022-10-09T11:12:24.684Z,100167.41
2022-10-09T11:15:08.940Z,100164.53
2022-10-09T11:17:48.094Z,100164.88
2022-10-09T11:20:53.248Z,100167.28
2022-10-09T11:23:39.981Z,100174.44
2022-10-09T11:26:24.549Z,100160.22
2022-10-09T11:28:59.506Z,100166.88
2022-10-09T11:31:33.977Z,100153.66
2022-10-09T11:34:10.361Z,100150.66
2022-10-09T11:36:44.076Z,100144.50
2022-10-09T11:39:18.279Z,100144.03
2022-10-09T11:41:49.348Z,100138.03
2022-10-09T11:44:38.529Z,100137.84
2022-10-09T11:47:19.280Z,100129.47
2022-10-09T11:50:06.153Z,100129.56
2022-10-09T11:52:43.930Z,100123.59
2022-10-09T11:55:23.871Z,100112.72
2022-10-09T11:57:53.950Z,100121.22
2022-10-09T12:00:34.767Z,100105.56
2022-10-09T12:03:06.360Z,100105.13
2022-10-09T12:05:42.335Z,100103.31
2022-10-09T12:08:18.355Z,100092.88
2022-10-09T12:10:55.069Z,100097.84
2022-10-09T12:13:42.912Z,100096.34
2022-10-09T12:16:32.965Z,100099.91
2022-10-09T12:19:04.413Z,100098.72
2022-10-09T12:21:41.045Z,100096.44
2022-10-09T12:24:17.110Z,100091.81
2022-10-09T12:26:49.043Z,100085.25
2022-10-09T12:29:26.924Z,100084.53
2022-10-09T12:32:00.711Z,100078.91
2022-10-09T12:34:33.802Z,100064.69
2022-10-09T12:37:14.927Z,100071.63
2022-10-09T12:39:43.953Z,100071.63
2022-10-09T12:42:21.882Z,100064.22
2022-10-09T12:44:53.788Z,100056.59
2022-10-09T12:47:26.816Z,100059.34
2022-10-09T12:50:01.931Z,100061.41
2022-10-09T12:52:33.127Z,100064.41
2022-10-09T12:55:03.745Z,100063.66
2022-10-09T12:57:33.730Z,100055.09
2022-10-09T13:00:02.327Z,100063.97
2022-10-09T13:02:31.858Z,100050.13
2022-10-09T13:05:02.922Z,100048.47
2022-10-09T13:07:33.079Z,100051.09
2022-10-09T13:10:09.432Z,100040.84
2022-10-09T13:12:39.426Z,100039.16
2022-10-09T13:15:29.954Z,100045.66
2022-10-09T13:17:58.732Z,100041.47
2022-10-09T13:20:30.512Z,100033.88
2022-10-09T13:23:01.908Z,100027.06
2022-10-09T13:25:35.765Z,100031.53
2022-10-09T13:28:06.254Z,100024.59
2022-10-09T13:30:35.166Z,100027.47
2022-10-09T13:33:03.571Z,100023.41
2022-10-09T13:35:32.051Z,100030.47
2022-10-09T13:38:00.411Z,100028.59
2022-10-09T13:40:28.922Z,100037.34
2022-10-09T13:43:02.581Z,100038.84
2022-10-09T13:45:32.392Z,100028.41
2022-10-09T13:48:01.575Z,100038.16
2022-10-09T13:50:30.001Z,100046.28
2022-10-09T13:53:00.230Z,100032.66
2022-10-09T13:55:28.786Z,100030.63
2022-10-09T13:57:57.247Z,100030.53
2022-10-09T14:00:25.623Z,100033.81
2022-10-09T14:02:55.621Z,100030.78
2022-10-09T14:05:26.616Z,100023.75
2022-10-09T14:07:55.254Z,100031.84
2022-10-09T14:10:24.175Z,100028.78
2022-10-09T14:12:52.717Z,100024.19
2022-10-09T14:15:21.085Z,100029.13
2022-10-09T14:17:49.837Z,100020.44
2022-10-09T14:20:20.087Z,100025.13
2022-10-09T14:22:48.773Z,100024.31
2022-10-09T14:25:17.526Z,100027.63
2022-10-09T14:27:45.911Z,100026.63
2022-10-09T14:30:15.098Z,100018.41
2022-10-09T14:32:43.532Z,100019.91
2022-10-09T14:35:13.227Z,100004.56
2022-10-09T14:37:43.019Z,100009.66
2022-10-09T14:40:12.737Z,100009.28
2022-10-09T14:42:41.720Z,99997.75
2022-10-09T14:45:12.179Z,99996.59
2022-10-09T14:47:40.528Z,100007.13
2022-10-09T14:50:10.523Z,100002.00
2022-10-09T14:52:38.960Z,99998.53
2022-10-09T14:55:09.946Z,99999.84
2022-10-09T14:57:38.337Z,99985.50
2022-10-09T15:00:09.287Z,99993.88
2022-10-09T15:02:37.706Z,100003.03
2022-10-09T15:05:07.366Z,99989.84
2022-10-09T15:07:35.758Z,99991.28
2022-10-09T15:10:04.416Z,99990.72
2022-10-09T15:12:34.204Z,99987.69
2022-10-09T15:15:02.568Z,99980.44
2022-10-09T15:17:30.943Z,99979.03
2022-10-09T15:19:59.335Z,99976.00
2022-10-09T15:22:27.738Z,99979.34
2022-10-09T15:24:56.174Z,99975.97
2022-10-09T15:27:24.539Z,99976.25
2022-10-09T15:29:54.303Z,99982.41
2022-10-09T15:32:22.690Z,99982.00
2022-10-09T15:34:51.164Z,99983.06
2022-10-09T15:37:19.581Z,99987.41
2022-10-09T15:39:47.957Z,99979.81
2022-10-09T15:42:16.330Z,99984.16
2022-10-09T15:44:44.699Z,99981.75
2022-10-09T15:47:16.756Z,99987.78
2022-10-09T15:49:52.561Z,99995.41
2022-10-09T15:52:21.994Z,99997.78
2022-10-09T15:54:50.424Z,99991.81
2022-10-09T15:57:19.026Z,99989.44
2022-10-09T15:59:47.402Z,99990.47
2022-10-09T16:02:17.171Z,99985.63
2022-10-09T16:04:45.632Z,99998.31
2022-10-09T16:07:14.037Z,99994.28
2022-10-09T16:09:42.464Z,99991.34
2022-10-09T16:12:10.857Z,99996.19
2022-10-09T16:14:41.045Z,99996.38
2022-10-09T16:17:11.449Z,100001.53
2022-10-09T16:19:41.442Z,99994.69
2022-10-09T16:22:09.909Z,99999.81
2022-10-09T16:24:38.313Z,100004.97
2022-10-09T16:27:06.709Z,100000.09
2022-10-09T16:29:35.192Z,100005.22
2022-10-09T16:32:03.675Z,100004.78
2022-10-09T16:34:32.095Z,99999.59
2022-10-09T16:37:02.376Z,99998.84
2022-10-09T16:39:30.792Z,100007.53
2022-10-09T16:42:03.759Z,100009.56
2022-10-09T16:44:32.433Z,100013.56
2022-10-09T16:47:00.827Z,100018.66
2022-10-09T16:49:29.210Z,100016.78
2022-10-09T16:51:57.637Z,100013.47
2022-10-09T16:54:27.429Z,100014.06
2022-10-09T16:56:55.826Z,100012.72
2022-10-09T16:59:24.452Z,100016.41
2022-10-09T17:01:55.319Z,100009.25
2022-10-09T17:04:24.212Z,100010.16
2022-10-09T17:06:53.743Z,100010.75
2022-10-09T17:09:22.710Z,100012.47
2022-10-09T17:11:52.863Z,100015.00
2022-10-09T17:14:24.230Z,100007.28
2022-10-09T17:16:53.027Z,100009.00
2022-10-09T17:19:21.917Z,100010.44
2022-10-09T17:21:51.123Z,100009.91
2022-10-09T17:24:20.520Z,100008.81
2022-10-09T17:26:49.351Z,100012.75
2022-10-09T17:29:20.090Z,100005.81
2022-10-09T17:31:49.383Z,100002.78
2022-10-09T17:34:19.044Z,100005.88
2022-10-09T17:36:47.915Z,100004.47
2022-10-09T17:39:19.935Z,100001.16
2022-10-09T17:41:52.086Z,100003.94
2022-10-09T17:44:24.435Z,99997.34
2022-10-09T17:46:53.587Z,99995.66
2022-10-09T17:49:23.230Z,99997.41
2022-10-09T17:51:53.181Z,99995.50
2022-10-09T17:54:22.440Z,99988.88
2022-10-09T17:56:51.226Z,99988.94
2022-10-09T17:59:21.456Z,99980.66
2022-10-09T18:01:50.489Z,99989.03
2022-10-09T18:04:19.948Z,99993.53
2022-10-09T18:06:49.032Z,100001.59
2022-10-09T18:09:18.176Z,99996.66
2022-10-09T18:11:47.835Z,99997.81
2022-10-09T18:14:18.093Z,99993.97
2022-10-09T18:16:48.889Z,100004.03
2022-10-09T18:19:19.906Z,99998.78
2022-10-09T18:21:51.057Z,99997.41
2022-10-09T18:24:21.023Z,99992.44
2022-10-09T18:26:50.265Z,99989.94
2022-10-09T18:29:19.600Z,99985.81
2022-10-09T18:31:51.932Z,99986.38
2022-10-09T18:34:21.482Z,99990.00
2022-10-09T18:36:52.343Z,99991.41
2022-10-09T18:39:22.298Z,99996.41
2022-10-09T18:41:51.748Z,99985.06
2022-10-09T18:44:24.638Z,99989.25
2022-10-09T18:46:58.618Z,99989.84
2022-10-09T18:49:31.889Z,99981.53
2022-10-09T18:52:05.167Z,99977.69
2022-10-09T18:54:34.752Z,99984.91
2022-10-09T18:57:05.252Z,99979.69
2022-10-09T18:59:37.390Z,99986.09
2022-10-09T19:02:08.203Z,99977.81
2022-10-09T19:04:37.889Z,99972.03
2022-10-09T19:07:06.610Z,99979.28
2022-10-09T19:09:36.718Z,99978.19
2022-10-09T19:12:05.680Z,99982.38
2022-10-09T19:14:35.653Z,99980.19
2022-10-09T19:17:04.671Z,99991.53
2022-10-09T19:19:35.208Z,99986.59
2022-10-09T19:22:03.642Z,99990.47
2022-10-09T19:24:34.303Z,99986.31
2022-10-09T19:27:04.915Z,99990.22
2022-10-09T19:29:33.597Z,99984.16
2022-10-09T19:32:02.162Z,99986.31
2022-10-09T19:34:33.310Z,99987.16
2022-10-09T19:37:02.968Z,99993.25
2022-10-09T19:39:31.843Z,99980.22
2022-10-09T19:42:00.597Z,99980.22
2022-10-09T19:44:29.211Z,99979.13
2022-10-09T19:47:00.262Z,99982.41
2022-10-09T19:49:31.678Z,99985.19
2022-10-09T19:52:02.626Z,99988.78
2022-10-09T19:54:33.153Z,99986.28
2022-10-09T19:57:02.100Z,99985.75
2022-10-09T19:59:31.321Z,99976.91
2022-10-09T20:02:00.297Z,99977.47
2022-10-09T20:04:29.187Z,99977.75
2022-10-09T20:06:57.914Z,99968.06
2022-10-09T20:09:28.036Z,99975.84
2022-10-09T20:11:56.548Z,99980.03
2022-10-09T20:14:25.332Z,99982.25
2022-10-09T20:16:53.864Z,99984.75
2022-10-09T20:19:22.271Z,99975.63
2022-10-09T20:21:51.270Z,99974.25
2022-10-09T20:24:20.873Z,99975.66
2022-10-09T20:26:50.782Z,99971.53
2022-10-09T20:29:19.215Z,99973.75
2022-10-09T20:31:48.874Z,99968.47
2022-10-09T20:34:17.883Z,99967.09
2022-10-09T20:36:46.321Z,99980.94
2022-10-09T20:39:16.346Z,99968.53
2022-10-09T20:41:45.324Z,99967.97
2022-10-09T20:44:15.670Z,99975.19
2022-10-09T20:46:44.125Z,99969.94
2022-10-09T20:49:16.930Z,99979.06
2022-10-09T20:51:45.346Z,99973.00
2022-10-09T20:54:19.099Z,99960.00
2022-10-09T20:56:48.302Z,99963.88
2022-10-09T20:59:19.225Z,99966.41
2022-10-09T21:01:47.773Z,99971.34
2022-10-09T21:04:16.292Z,99968.06
2022-10-09T21:06:45.001Z,99963.91
2022-10-09T21:09:13.581Z,99964.50
2022-10-09T21:11:42.730Z,99964.22
2022-10-09T21:14:11.676Z,99957.28
2022-10-09T21:16:41.452Z,99956.75
2022-10-09T21:19:12.685Z,99958.97
2022-10-09T21:21:41.114Z,99956.50
2022-10-09T21:24:09.471Z,99963.44
2022-10-09T21:26:39.343Z,99953.47
2022-10-09T21:29:08.277Z,99949.59
2022-10-09T21:31:36.688Z,99950.72
2022-10-09T21:34:06.825Z,99947.38
2022-10-09T21:37:01.825Z,99944.38
2022-10-09T21:39:30.812Z,99945.75
2022-10-09T21:41:59.389Z,99950.75
2022-10-09T21:44:27.818Z,99945.78
2022-10-09T21:46:56.231Z,99948.00
2022-10-09T21:49:28.273Z,99941.09
2022-10-09T21:51:57.049Z,99946.06
2022-10-09T21:54:25.683Z,99946.06
2022-10-09T21:56:54.084Z,99944.69
2022-10-09T21:59:22.442Z,99952.16
2022-10-09T22:01:50.874Z,99945.00
2022-10-09T22:04:19.264Z,99940.56
2022-10-09T22:06:49.061Z,99940.84
2022-10-09T22:09:17.549Z,99937.53
2022-10-09T22:11:45.921Z,99933.09
2022-10-09T22:14:14.791Z,99933.38
2022-10-09T22:16:43.210Z,99928.41
2022-10-09T22:19:11.722Z,99932.00
2022-10-09T22:21:40.103Z,99923.69
2022-10-09T22:24:09.929Z,99933.94
2022-10-09T22:26:38.370Z,99930.34
2022-10-09T22:29:06.690Z,99933.09
2022-10-09T22:31:35.107Z,99925.94
2022-10-09T22:34:03.886Z,99922.03
2022-10-09T22:36:34.985Z,99927.84
2022-10-09T22:39:05.924Z,99926.19
2022-10-09T22:41:36.598Z,99926.47
2022-10-09T22:44:07.886Z,99931.16
2022-10-09T22:46:39.189Z,99934.22
2022-10-09T22:49:09.378Z,99923.16
2022-10-09T22:51:37.778Z,99924.84
2022-10-09T22:54:06.904Z,99925.94
2022-10-09T22:56:39.592Z,99930.63
2022-10-09T22:59:09.678Z,99931.75
2022-10-09T23:01:43.728Z,99928.16
2022-10-09T23:04:16.052Z,99927.59
2022-10-09T23:06:45.903Z,99928.72
2022-10-09T23:09:16.208Z,99921.53
2022-10-09T23:11:46.115Z,99921.00
2022-10-09T23:14:14.900Z,99922.91
2022-10-09T23:16:43.754Z,99920.16
2022-10-09T23:19:12.344Z,99916.00
2022-10-09T23:21:42.982Z,99917.09
2022-10-09T23:24:15.369Z,99924.00
2022-10-09T23:26:45.529Z,99916.84
2022-10-09T23:29:19.977Z,99924.56
2022-10-09T23:31:49.322Z,99922.06
2022-10-09T23:34:17.776Z,99911.28
2022-10-09T23:36:46.153Z,99907.41
2022-10-09T23:39:14.887Z,99910.19
2022-10-09T23:41:43.326Z,99905.47
2022-10-09T23:44:13.141Z,99907.69
2022-10-09T23:46:41.973Z,99903.00
2022-10-09T23:49:11.241Z,99914.34
2022-10-09T23:51:39.904Z,99909.91
2022-10-09T23:54:08.297Z,99907.97
2022-10-09T23:56:37.787Z,99900.78
2022-10-09T23:59:07.356Z,99905.22
